createdAt,value
2023-03-26T00:01:49.957Z,100646.06
2023-03-26T00:04:21.772Z,100634.81
2023-03-26T00:06:50.473Z,100626.41
2023-03-26T00:09:20.678Z,100608.06
2023-03-26T00:11:48.418Z,100591.59
2023-03-26T00:14:17.931Z,100588.47
2023-03-26T00:16:49.458Z,100574.06
2023-03-26T00:19:17.400Z,100570.25
2023-03-26T00:21:45.269Z,100544.94
2023-03-26T00:24:16.329Z,100531.75
2023-03-26T00:26:44.816Z,100544.56
2023-03-26T00:29:15.590Z,100547.34
2023-03-26T00:31:46.392Z,100531.91
2023-03-26T00:34:18.221Z,100526.94
2023-03-26T00:36:47.876Z,100509.19
2023-03-26T00:39:17.798Z,100497.97
2023-03-26T00:41:45.606Z,100493.38
2023-03-26T00:44:13.266Z,100487.84
2023-03-26T00:46:41.321Z,100472.72
2023-03-26T00:49:10.804Z,100465.09
2023-03-26T00:51:40.335Z,100458.31
2023-03-26T00:54:08.776Z,100456.06
2023-03-26T00:56:37.009Z,100446.25
2023-03-26T00:59:05.023Z,100426.38
2023-03-26T01:01:32.898Z,100420.44
2023-03-26T01:04:31.042Z,100401.50
2023-03-26T01:07:04.944Z,100401.78
2023-03-26T01:09:35.996Z,100392.28
2023-03-26T01:12:06.820Z,100401.59
2023-03-26T01:14:35.073Z,100404.72
2023-03-26T01:17:04.450Z,100399.50
2023-03-26T01:19:39.141Z,100397.41
2023-03-26T01:22:10.987Z,100403.22
2023-03-26T01:24:40.965Z,100404.63
2023-03-26T01:27:19.174Z,100399.84
2023-03-26T01:29:54.234Z,100407.31
2023-03-26T01:32:37.665Z,100404.88
2023-03-26T01:35:19.030Z,100407.50
2023-03-26T01:38:10.652Z,100409.22
2023-03-26T01:40:46.778Z,100412.28
2023-03-26T01:43:23.136Z,100399.81
2023-03-26T01:45:52.861Z,100399.34
2023-03-26T01:48:21.301Z,100402.97
2023-03-26T01:50:53.617Z,100396.06
2023-03-26T01:53:21.843Z,100405.75
2023-03-26T01:56:02.109Z,100399.34
2023-03-26T01:58:36.758Z,100392.31
2023-03-26T02:01:17.971Z,100384.94
2023-03-26T02:03:52.097Z,100387.56
2023-03-26T02:06:26.205Z,100393.34
2023-03-26T02:08:59.803Z,100394.84
2023-03-26T02:11:35.529Z,100400.13
2023-03-26T02:14:06.134Z,100414.78
2023-03-26T02:16:34.279Z,100427.44
2023-03-26T02:19:02.586Z,100420.34
2023-03-26T02:21:34.017Z,100426.91
2023-03-26T02:24:04.323Z,100429.78
2023-03-26T02:26:38.720Z,100431.16
2023-03-26T02:29:10.165Z,100428.41
2023-03-26T02:31:40.321Z,100414.81
2023-03-26T02:34:08.330Z,100402.63
2023-03-26T02:36:39.024Z,100397.44
2023-03-26T02:39:09.077Z,100397.75
2023-03-26T02:41:40.245Z,100387.22
2023-03-26T02:44:11.002Z,100378.28
2023-03-26T02:46:57.706Z,100374.03
2023-03-26T02:50:01.432Z,100377.06
2023-03-26T02:52:50.061Z,100374.47
2023-03-26T02:55:18.761Z,100381.84
2023-03-26T02:57:49.095Z,100383.91
2023-03-26T03:00:22.528Z,100399.88
2023-03-26T03:02:54.121Z,100390.16
2023-03-26T03:05:26.522Z,100375.41
2023-03-26T03:08:18.242Z,100381.41
2023-03-26T03:11:10.407Z,100377.75
2023-03-26T03:13:48.130Z,100380.97
2023-03-26T03:16:20.002Z,100381.31
2023-03-26T03:18:54.129Z,100376.38
2023-03-26T03:21:23.870Z,100374.38
2023-03-26T03:23:51.644Z,100372.66
2023-03-26T03:26:22.760Z,100373.34
2023-03-26T03:28:55.795Z,100375.66
2023-03-26T03:31:24.711Z,100378.38
2023-03-26T03:33:54.069Z,100371.59
2023-03-26T03:36:27.299Z,100369.09
2023-03-26T03:39:03.129Z,100377.13
2023-03-26T03:41:32.534Z,100373.31
2023-03-26T03:44:04.221Z,100363.22
2023-03-26T03:46:33.674Z,100370.72
2023-03-26T03:49:02.190Z,100367.25
2023-03-26T03:51:35.273Z,100364.50
2023-03-26T03:54:15.192Z,100361.47
2023-03-26T03:56:47.329Z,100356.88
2023-03-26T03:59:49.209Z,100356.34
2023-03-26T04:02:26.091Z,100359.22
2023-03-26T04:04:58.569Z,100360.00
2023-03-26T04:07:27.190Z,100350.09
2023-03-26T04:10:09.911Z,100335.34
2023-03-26T04:12:58.173Z,100329.81
2023-03-26T04:15:46.046Z,100304.50
2023-03-26T04:18:13.939Z,100300.91
2023-03-26T04:20:47.259Z,100296.47
2023-03-26T04:23:23.325Z,100272.31
2023-03-26T04:25:59.607Z,100274.72
2023-03-26T04:28:46.334Z,100263.97
2023-03-26T04:31:24.266Z,100249.69
2023-03-26T04:33:55.119Z,100240.75
2023-03-26T04:36:28.357Z,100233.56
2023-03-26T04:38:58.299Z,100228.09
2023-03-26T04:41:46.968Z,100211.16
2023-03-26T04:44:22.309Z,100197.78
2023-03-26T04:46:57.216Z,100187.81
2023-03-26T04:49:32.141Z,100186.50
2023-03-26T04:52:00.725Z,100175.44
2023-03-26T04:55:01.078Z,100164.38
2023-03-26T04:57:36.655Z,100152.41
2023-03-26T05:00:15.371Z,100141.88
2023-03-26T05:02:49.966Z,100139.19
2023-03-26T05:05:18.969Z,100128.47
2023-03-26T05:07:46.789Z,100132.13
2023-03-26T05:10:20.252Z,100133.81
2023-03-26T05:12:55.250Z,100119.47
2023-03-26T05:15:27.219Z,100122.44
2023-03-26T05:17:56.566Z,100121.16
2023-03-26T05:20:41.473Z,100127.03
2023-03-26T05:23:11.036Z,100124.22
2023-03-26T05:25:54.428Z,100131.72
2023-03-26T05:28:26.624Z,100155.69
2023-03-26T05:30:58.548Z,100152.19
2023-03-26T05:33:30.714Z,100165.69
2023-03-26T05:36:06.018Z,100177.56
2023-03-26T05:38:35.048Z,100175.81
2023-03-26T05:41:07.501Z,100175.44
2023-03-26T05:43:37.472Z,100194.00
2023-03-26T05:46:12.562Z,100183.25
2023-03-26T05:48:41.831Z,100178.91
2023-03-26T05:51:09.713Z,100189.16
2023-03-26T05:53:42.722Z,100178.13
2023-03-26T05:56:28.886Z,100182.19
2023-03-26T05:59:17.447Z,100174.47
2023-03-26T06:02:03.908Z,100221.69
2023-03-26T06:04:52.640Z,100232.38
2023-03-26T06:07:39.716Z,100258.34
2023-03-26T06:10:18.437Z,100248.75
2023-03-26T06:12:47.480Z,100236.78
2023-03-26T06:15:15.741Z,100229.16
2023-03-26T06:17:47.970Z,100222.25
2023-03-26T06:20:43.624Z,100226.03
2023-03-26T06:23:22.873Z,100217.72
2023-03-26T06:26:06.495Z,100208.88
2023-03-26T06:28:59.795Z,100189.97
2023-03-26T06:31:53.792Z,100177.78
2023-03-26T06:34:27.478Z,100168.59
2023-03-26T06:36:57.150Z,100164.16
2023-03-26T06:39:25.395Z,100148.47
2023-03-26T06:42:14.660Z,100121.00
2023-03-26T06:44:50.901Z,100115.25
2023-03-26T06:47:37.195Z,100114.13
2023-03-26T06:50:23.827Z,100107.59
2023-03-26T06:53:28.654Z,100112.59
2023-03-26T06:56:17.646Z,100110.09
2023-03-26T06:59:21.191Z,100092.06
2023-03-26T07:02:07.615Z,100053.13
2023-03-26T07:04:54.687Z,100012.03
2023-03-26T07:07:46.368Z,99977.88
2023-03-26T07:10:35.034Z,99940.53
2023-03-26T07:13:41.792Z,99897.44
2023-03-26T07:16:28.113Z,99874.75
2023-03-26T07:19:09.823Z,99843.78
2023-03-26T07:21:40.843Z,99816.78
2023-03-26T07:24:32.657Z,99786.13
2023-03-26T07:27:18.860Z,99781.50
2023-03-26T07:29:50.393Z,99788.03
2023-03-26T07:32:41.810Z,99804.22
2023-03-26T07:35:34.122Z,99821.28
2023-03-26T07:38:44.774Z,99858.34
2023-03-26T07:41:57.299Z,99889.69
2023-03-26T07:44:51.769Z,99921.16
2023-03-26T07:47:28.623Z,99924.72
2023-03-26T07:50:18.438Z,99936.69
2023-03-26T07:53:02.308Z,99951.19
2023-03-26T07:56:02.599Z,99969.63
2023-03-26T07:59:00.326Z,99994.75
2023-03-26T08:01:52.171Z,100004.53
2023-03-26T08:04:46.250Z,100023.56
2023-03-26T08:07:45.802Z,100033.72
2023-03-26T08:10:23.553Z,100036.50
2023-03-26T08:13:04.757Z,100025.56
2023-03-26T08:15:37.917Z,100031.03
2023-03-26T08:18:20.519Z,100033.38
2023-03-26T08:20:51.160Z,100047.56
2023-03-26T08:23:27.681Z,100034.09
2023-03-26T08:26:03.017Z,100032.41
2023-03-26T08:28:42.292Z,100040.06
2023-03-26T08:31:13.650Z,100059.28
2023-03-26T08:33:43.575Z,100069.94
2023-03-26T08:36:11.829Z,100060.25
2023-03-26T08:38:39.652Z,100073.56
2023-03-26T08:41:48.109Z,100094.13
2023-03-26T08:44:48.925Z,100119.00
2023-03-26T08:47:38.801Z,100145.13
2023-03-26T08:50:43.083Z,100137.50
2023-03-26T08:53:48.568Z,100166.25
2023-03-26T08:56:27.547Z,100161.00
2023-03-26T08:59:18.841Z,100175.88
2023-03-26T09:02:09.103Z,100199.47
2023-03-26T09:05:01.239Z,100236.69
2023-03-26T09:08:12.171Z,100253.31
2023-03-26T09:10:54.418Z,100223.41
2023-03-26T09:14:11.563Z,100194.69
2023-03-26T09:16:57.040Z,100187.13
2023-03-26T09:20:02.441Z,100209.13
2023-03-26T09:23:04.474Z,100242.53
2023-03-26T09:26:00.910Z,100291.34
2023-03-26T09:28:50.327Z,100280.97
2023-03-26T09:32:05.951Z,100323.31
2023-03-26T09:34:47.236Z,100334.78
2023-03-26T09:37:26.550Z,100343.41
2023-03-26T09:40:16.394Z,100365.53
2023-03-26T09:42:46.832Z,100380.00
2023-03-26T09:45:30.994Z,100356.03
2023-03-26T09:48:16.626Z,100324.69
2023-03-26T09:50:56.389Z,100263.28
2023-03-26T09:53:50.320Z,100234.28
2023-03-26T09:56:32.309Z,100194.59
2023-03-26T09:59:35.793Z,100148.19
2023-03-26T10:02:22.762Z,100087.94
2023-03-26T10:05:24.890Z,99951.72
2023-03-26T10:08:03.523Z,99863.94
2023-03-26T10:10:43.309Z,99781.75
2023-03-26T10:13:25.145Z,99719.59
2023-03-26T10:16:11.410Z,99685.13
2023-03-26T10:18:58.014Z,99679.69
2023-03-26T10:21:37.986Z,99697.84
2023-03-26T10:24:27.799Z,99696.53
2023-03-26T10:27:10.160Z,99686.56
2023-03-26T10:30:10.105Z,99679.91
2023-03-26T10:32:48.274Z,99647.75
2023-03-26T10:35:27.330Z,99627.00
2023-03-26T10:38:07.106Z,99622.88
2023-03-26T10:40:44.294Z,99603.75
2023-03-26T10:43:58.044Z,99564.28
2023-03-26T10:47:10.438Z,99478.31
2023-03-26T10:49:52.243Z,99390.72
2023-03-26T10:52:24.819Z,99353.00
2023-03-26T10:55:01.849Z,99324.19
2023-03-26T10:57:42.315Z,99305.56
2023-03-26T11:00:24.811Z,99301.09
2023-03-26T11:03:11.265Z,99306.28
2023-03-26T11:05:50.815Z,99316.34
2023-03-26T11:08:31.762Z,99344.47
2023-03-26T11:11:12.684Z,99367.75
2023-03-26T11:13:51.598Z,99389.44
2023-03-26T11:16:30.933Z,99401.16
2023-03-26T11:19:05.581Z,99418.53
2023-03-26T11:21:38.020Z,99435.72
2023-03-26T11:24:36.166Z,99455.72
2023-03-26T11:27:15.465Z,99397.63
2023-03-26T11:29:52.950Z,99361.72
2023-03-26T11:32:25.717Z,99341.69
2023-03-26T11:35:02.431Z,99321.50
2023-03-26T11:37:34.579Z,99331.25
2023-03-26T11:40:09.190Z,99326.81
2023-03-26T11:42:38.001Z,99320.00
2023-03-26T11:45:09.390Z,99297.22
2023-03-26T11:47:45.762Z,99291.56
2023-03-26T11:50:19.673Z,99276.63
2023-03-26T11:52:50.308Z,99262.16
2023-03-26T11:55:18.862Z,99286.13
2023-03-26T11:57:54.687Z,99308.31
2023-03-26T12:00:27.565Z,99320.72
2023-03-26T12:03:04.269Z,99438.47
2023-03-26T12:05:49.414Z,99421.47
2023-03-26T12:08:23.386Z,99398.06
2023-03-26T12:11:03.838Z,99396.69
2023-03-26T12:13:36.913Z,99381.06
2023-03-26T12:16:14.460Z,99382.31
2023-03-26T12:18:44.148Z,99385.28
2023-03-26T12:21:16.000Z,99391.38
2023-03-26T12:23:51.745Z,99379.47
2023-03-26T12:26:22.098Z,99372.38
2023-03-26T12:28:52.276Z,99361.84
2023-03-26T12:31:21.045Z,99358.69
2023-03-26T12:34:08.199Z,99366.19
2023-03-26T12:36:39.512Z,99369.34
2023-03-26T12:40:08.734Z,99375.09
2023-03-26T12:44:55.070Z,99371.69
2023-03-26T12:45:17.072Z,99387.78
2023-03-26T12:48:01.203Z,99385.75
2023-03-26T12:50:51.241Z,99395.44
2023-03-26T12:53:37.761Z,99402.16
2023-03-26T12:56:19.896Z,99406.94
2023-03-26T12:59:04.164Z,99413.56
2023-03-26T13:01:42.983Z,99422.97
2023-03-26T13:04:28.994Z,99421.66
2023-03-26T13:07:04.821Z,99435.81
2023-03-26T13:10:29.414Z,99451.59
2023-03-26T13:13:12.071Z,99465.06
2023-03-26T13:15:44.637Z,99457.84
2023-03-26T13:18:24.235Z,99471.28
2023-03-26T13:21:00.052Z,99463.75
2023-03-26T13:23:38.447Z,99476.00
2023-03-26T13:26:22.220Z,99490.59
2023-03-26T13:29:06.894Z,99512.13
2023-03-26T13:31:40.641Z,99529.16
2023-03-26T13:34:19.518Z,99538.97
2023-03-26T13:37:02.303Z,99566.75
2023-03-26T13:39:38.845Z,99573.06
2023-03-26T13:42:37.660Z,99585.50
2023-03-26T13:45:21.778Z,99581.00
2023-03-26T13:48:02.298Z,99583.31
2023-03-26T13:50:34.651Z,99602.34
2023-03-26T13:53:09.032Z,99617.84
2023-03-26T13:55:54.548Z,99625.06
2023-03-26T13:58:38.604Z,99622.28
2023-03-26T14:01:19.658Z,99632.91
2023-03-26T14:04:05.141Z,99618.78
2023-03-26T14:07:17.080Z,99633.03
2023-03-26T14:10:02.063Z,99658.44
2023-03-26T14:12:56.580Z,99653.09
2023-03-26T14:15:32.475Z,99658.09
2023-03-26T14:18:08.507Z,99655.69
2023-03-26T14:21:09.313Z,99645.19
2023-03-26T14:23:57.115Z,99662.22
2023-03-26T14:26:57.046Z,99674.25
2023-03-26T14:30:03.749Z,99672.69
2023-03-26T14:32:53.793Z,99677.25
2023-03-26T14:35:46.193Z,99694.75
2023-03-26T14:39:32.119Z,99695.41
2023-03-26T14:42:09.222Z,99693.31
2023-03-26T14:47:22.212Z,99674.63
2023-03-26T14:50:42.742Z,99658.03
2023-03-26T14:53:23.049Z,99654.56
2023-03-26T14:56:26.170Z,99673.53
2023-03-26T14:59:51.250Z,99683.44
2023-03-26T15:02:54.008Z,99701.31
2023-03-26T15:06:08.803Z,99704.97
2023-03-26T15:09:29.746Z,99728.22
2023-03-26T15:12:12.309Z,99737.88
2023-03-26T15:15:25.093Z,99757.38
2023-03-26T15:18:45.988Z,99774.03
2023-03-26T15:21:49.158Z,99777.81
2023-03-26T15:24:47.758Z,99782.66
2023-03-26T15:27:58.886Z,99785.47
2023-03-26T15:31:09.966Z,99767.03
2023-03-26T15:34:21.628Z,99763.03
2023-03-26T15:37:22.085Z,99750.78
2023-03-26T15:40:22.598Z,99737.25
2023-03-26T15:43:01.465Z,99733.25
2023-03-26T15:45:36.208Z,99740.69
2023-03-26T15:48:37.387Z,99756.06
2023-03-26T15:51:30.613Z,99749.94
2023-03-26T15:54:07.088Z,99766.84
2023-03-26T15:56:58.237Z,99772.53
2023-03-26T15:59:39.447Z,99782.97
2023-03-26T16:02:17.908Z,99775.34
2023-03-26T16:04:52.371Z,99782.56
2023-03-26T16:07:48.258Z,99800.00
2023-03-26T16:10:29.174Z,99803.72
2023-03-26T16:13:31.501Z,99820.50
2023-03-26T16:16:23.738Z,99833.53
2023-03-26T16:18:58.270Z,99838.34
2023-03-26T16:21:58.182Z,99845.19
2023-03-26T16:24:31.999Z,99855.94
2023-03-26T16:27:36.794Z,99850.47
2023-03-26T16:30:30.408Z,99868.59
2023-03-26T16:33:10.724Z,99873.56
2023-03-26T16:36:06.413Z,99888.94
2023-03-26T16:38:50.336Z,99884.28
2023-03-26T16:41:20.631Z,99892.19
2023-03-26T16:44:14.224Z,99900.47
2023-03-26T16:46:59.945Z,99915.22
2023-03-26T16:49:38.543Z,99918.69
2023-03-26T16:52:26.389Z,99935.66
2023-03-26T16:55:03.888Z,99942.69
2023-03-26T16:57:44.249Z,99944.91
2023-03-26T17:00:31.932Z,99958.03
2023-03-26T17:03:17.568Z,99975.13
2023-03-26T17:06:06.022Z,99983.81
2023-03-26T17:08:47.297Z,99983.13
2023-03-26T17:11:54.334Z,99999.38
2023-03-26T17:14:50.671Z,100002.06
2023-03-26T17:17:37.884Z,100014.69
2023-03-26T17:20:21.617Z,100023.56
2023-03-26T17:23:02.722Z,100028.25
2023-03-26T17:25:58.841Z,100037.09
2023-03-26T17:28:57.058Z,100051.47
2023-03-26T17:31:42.433Z,100077.91
2023-03-26T17:34:46.912Z,100098.03
2023-03-26T17:37:36.316Z,100107.38
2023-03-26T17:40:47.354Z,100136.19
2023-03-26T17:43:38.180Z,100150.44
2023-03-26T17:46:18.260Z,100152.38
2023-03-26T17:48:48.533Z,100179.31
2023-03-26T17:51:44.543Z,100200.97
2023-03-26T17:54:26.248Z,100216.25
2023-03-26T17:56:57.377Z,100235.88
2023-03-26T17:59:44.203Z,100245.69
2023-03-26T18:02:16.474Z,100279.38
2023-03-26T18:04:57.643Z,100282.31
2023-03-26T18:08:19.276Z,100318.31
2023-03-26T18:11:12.384Z,100326.00
2023-03-26T18:14:00.243Z,100354.97
2023-03-26T18:16:39.116Z,100368.81
2023-03-26T18:19:18.516Z,100382.59
2023-03-26T18:21:54.218Z,100393.53
2023-03-26T18:24:28.531Z,100393.38
2023-03-26T18:27:11.430Z,100426.28
2023-03-26T18:29:46.526Z,100433.28
2023-03-26T18:32:27.848Z,100443.69
2023-03-26T18:35:20.416Z,100444.59
2023-03-26T18:37:50.760Z,100455.91
2023-03-26T18:40:22.975Z,100460.94
2023-03-26T18:42:55.945Z,100455.69
2023-03-26T18:45:28.968Z,100471.53
2023-03-26T18:48:02.266Z,100485.50
2023-03-26T18:50:38.225Z,100495.06
2023-03-26T18:53:21.161Z,100494.84
2023-03-26T18:55:52.007Z,100506.75
2023-03-26T18:58:27.693Z,100516.31
2023-03-26T19:00:58.748Z,100528.16
2023-03-26T19:03:29.797Z,100538.50
2023-03-26T19:05:59.016Z,100545.44
2023-03-26T19:08:30.639Z,100558.47
2023-03-26T19:11:04.766Z,100562.44
2023-03-26T19:13:38.738Z,100576.44
2023-03-26T19:16:13.849Z,100595.13
2023-03-26T19:18:44.488Z,100596.63
2023-03-26T19:21:12.641Z,100600.69
2023-03-26T19:23:46.472Z,100605.97
2023-03-26T19:26:16.095Z,100619.88
2023-03-26T19:28:52.501Z,100620.94
2023-03-26T19:31:24.449Z,100618.59
2023-03-26T19:34:01.627Z,100626.19
2023-03-26T19:36:32.390Z,100632.66
2023-03-26T19:39:15.865Z,100641.28
2023-03-26T19:41:52.722Z,100657.56
2023-03-26T19:44:28.195Z,100651.13
2023-03-26T19:47:04.492Z,100654.94
2023-03-26T19:49:37.795Z,100656.53
2023-03-26T19:52:13.549Z,100661.78
2023-03-26T19:54:59.707Z,100676.13
2023-03-26T19:57:30.296Z,100679.09
2023-03-26T20:00:00.613Z,100680.19
2023-03-26T20:02:29.325Z,100697.75
2023-03-26T20:04:57.329Z,100704.41
2023-03-26T20:07:35.662Z,100708.69
2023-03-26T20:10:11.474Z,100724.72
2023-03-26T20:12:39.756Z,100722.81
2023-03-26T20:15:19.365Z,100733.66
2023-03-26T20:17:50.279Z,100745.44
2023-03-26T20:20:20.387Z,100741.69
2023-03-26T20:22:49.535Z,100750.13
2023-03-26T20:25:22.983Z,100768.06
2023-03-26T20:27:55.293Z,100765.94
2023-03-26T20:30:37.016Z,100769.03
2023-03-26T20:33:12.004Z,100776.72
2023-03-26T20:35:43.108Z,100786.47
2023-03-26T20:38:11.540Z,100785.00
2023-03-26T20:40:40.153Z,100796.41
2023-03-26T20:43:13.394Z,100802.56
2023-03-26T20:45:43.644Z,100816.63
2023-03-26T20:48:12.330Z,100816.28
2023-03-26T20:50:50.272Z,100827.44
2023-03-26T20:53:21.756Z,100820.66
2023-03-26T20:55:51.632Z,100834.28
2023-03-26T20:58:31.318Z,100840.59
2023-03-26T21:01:03.066Z,100854.22
2023-03-26T21:03:31.109Z,100849.47
2023-03-26T21:06:01.211Z,100862.19
2023-03-26T21:08:35.208Z,100861.66
2023-03-26T21:11:04.738Z,100864.94
2023-03-26T21:13:38.193Z,100877.63
2023-03-26T21:16:09.095Z,100881.06
2023-03-26T21:18:37.778Z,100898.44
2023-03-26T21:21:21.421Z,100898.81
2023-03-26T21:23:59.181Z,100905.22
2023-03-26T21:26:33.632Z,100907.66
2023-03-26T21:29:09.519Z,100906.81
2023-03-26T21:31:39.446Z,100916.06
2023-03-26T21:34:09.531Z,100926.47
2023-03-26T21:36:38.125Z,100926.97
2023-03-26T21:39:06.788Z,100935.38
2023-03-26T21:41:48.243Z,100954.84
2023-03-26T21:44:19.543Z,100956.91
2023-03-26T21:46:52.103Z,100958.38
2023-03-26T21:49:20.702Z,100959.72
2023-03-26T21:51:49.337Z,100968.97
2023-03-26T21:54:25.500Z,100977.81
2023-03-26T21:57:03.991Z,100979.13
2023-03-26T21:59:41.427Z,100984.81
2023-03-26T22:02:18.953Z,100976.38
2023-03-26T22:04:50.694Z,100991.50
2023-03-26T22:07:26.639Z,100995.66
2023-03-26T22:09:55.304Z,101004.16
2023-03-26T22:12:25.429Z,101011.84
2023-03-26T22:14:53.423Z,101021.03
2023-03-26T22:17:23.575Z,101033.63
2023-03-26T22:19:51.340Z,101037.75
2023-03-26T22:22:19.259Z,101033.44
2023-03-26T22:24:47.113Z,101040.72
2023-03-26T22:27:15.973Z,101050.63
2023-03-26T22:29:43.734Z,101050.56
2023-03-26T22:32:11.512Z,101057.31
2023-03-26T22:34:41.452Z,101051.84
2023-03-26T22:37:09.545Z,101055.31
2023-03-26T22:39:37.750Z,101058.56
2023-03-26T22:42:05.568Z,101072.34
2023-03-26T22:44:33.306Z,101082.22
2023-03-26T22:47:01.227Z,101079.69
2023-03-26T22:49:30.389Z,101085.44
2023-03-26T22:51:59.898Z,101084.75
2023-03-26T22:54:28.552Z,101089.75
2023-03-26T22:56:56.594Z,101097.31
2023-03-26T22:59:24.490Z,101091.97
2023-03-26T23:01:53.203Z,101098.03
2023-03-26T23:04:31.533Z,101107.41
2023-03-26T23:07:04.866Z,101117.19
2023-03-26T23:09:36.547Z,101123.25
2023-03-26T23:12:05.118Z,101122.84
2023-03-26T23:14:33.473Z,101134.34
2023-03-26T23:17:01.580Z,101128.56
2023-03-26T23:19:30.426Z,101140.47
2023-03-26T23:21:58.277Z,101141.94
2023-03-26T23:24:27.548Z,101145.72
2023-03-26T23:26:55.360Z,101159.34
2023-03-26T23:29:23.725Z,101158.56
2023-03-26T23:31:52.810Z,101162.88
2023-03-26T23:34:21.499Z,101165.53
2023-03-26T23:36:49.617Z,101166.56
2023-03-26T23:39:20.000Z,101166.53
2023-03-26T23:41:49.606Z,101183.41
2023-03-26T23:44:17.482Z,101176.81
2023-03-26T23:46:45.628Z,101195.44
2023-03-26T23:49:13.636Z,101206.84
2023-03-26T23:51:42.085Z,101199.47
2023-03-26T23:54:11.563Z,101198.19
2023-03-26T23:56:39.401Z,101211.56
2023-03-26T23:59:08.633Z,101209.91
